createdAt,value
2016-07-02T00:00:33.338Z,1001.74
2016-07-02T00:01:33.367Z,1001.73
2016-07-02T00:02:33.395Z,1001.74
2016-07-02T00:03:33.426Z,1001.72
2016-07-02T00:04:33.453Z,1001.65
2016-07-02T00:05:33.483Z,1001.66
2016-07-02T00:06:33.510Z,1001.65
2016-07-02T00:07:33.539Z,1001.64
2016-07-02T00:08:33.569Z,1001.64
2016-07-02T00:09:33.598Z,1001.6
2016-07-02T00:10:33.625Z,1001.63
2016-07-02T00:11:33.653Z,1001.59
2016-07-02T00:12:33.684Z,1001.58
2016-07-02T00:13:33.712Z,1001.56
2016-07-02T00:14:33.741Z,1001.59
2016-07-02T00:15:33.766Z,1001.56
2016-07-02T00:16:33.795Z,1001.58
2016-07-02T00:17:33.824Z,1001.53
2016-07-02T00:18:33.854Z,1001.5
2016-07-02T00:19:33.882Z,1001.51
2016-07-02T00:20:33.909Z,1001.51
2016-07-02T00:21:33.939Z,1001.49
2016-07-02T00:22:33.967Z,1001.45
2016-07-02T00:23:33.995Z,1001.43
2016-07-02T00:24:34.023Z,1001.39
2016-07-02T00:25:34.053Z,1001.4
2016-07-02T00:26:34.080Z,1001.37
2016-07-02T00:27:34.109Z,1001.35
2016-07-02T00:28:34.138Z,1001.32
2016-07-02T00:29:34.167Z,1001.32
2016-07-02T00:30:34.194Z,1001.33
2016-07-02T00:31:34.222Z,1001.3
2016-07-02T00:32:34.251Z,1001.3
2016-07-02T00:33:34.280Z,1001.29
2016-07-02T00:34:34.307Z,1001.3
2016-07-02T00:35:34.336Z,1001.25
2016-07-02T00:36:34.364Z,1001.28
2016-07-02T00:37:34.390Z,1001.27
2016-07-02T00:38:34.421Z,1001.26
2016-07-02T00:39:34.450Z,1001.23
2016-07-02T00:40:34.478Z,1001.2
2016-07-02T00:41:34.506Z,1001.23
2016-07-02T00:42:34.534Z,1001.23
2016-07-02T00:43:34.563Z,1001.24
2016-07-02T00:44:34.591Z,1001.2
2016-07-02T00:45:34.618Z,1001.24
2016-07-02T00:46:34.645Z,1001.2
2016-07-02T00:47:34.673Z,1001.18
2016-07-02T00:48:34.701Z,1001.16
2016-07-02T00:49:34.730Z,1001.11
2016-07-02T00:50:34.759Z,1001.12
2016-07-02T00:51:34.788Z,1001.09
2016-07-02T00:52:34.812Z,1001.11
2016-07-02T00:53:34.843Z,1001.08
2016-07-02T00:54:34.871Z,1001.07
2016-07-02T00:55:34.899Z,1001.04
2016-07-02T00:56:34.927Z,1001.04
2016-07-02T00:57:34.956Z,1001.04
2016-07-02T00:58:34.989Z,1001
2016-07-02T00:59:35.011Z,1000.99
2016-07-02T01:00:35.040Z,1000.99
2016-07-02T01:01:35.072Z,1000.98
2016-07-02T01:02:35.096Z,1000.93
2016-07-02T01:03:35.122Z,1000.95
2016-07-02T01:04:35.148Z,1000.95
2016-07-02T01:05:35.178Z,1000.93
2016-07-02T01:06:35.207Z,1000.95
2016-07-02T01:07:35.234Z,1000.92
2016-07-02T01:08:35.264Z,1000.9
2016-07-02T01:09:35.290Z,1000.86
2016-07-02T01:10:35.315Z,1000.88
2016-07-02T01:11:35.343Z,1000.8
2016-07-02T01:12:35.372Z,1000.84
2016-07-02T01:13:35.402Z,1000.84
2016-07-02T01:14:35.427Z,1000.84
2016-07-02T01:15:35.456Z,1000.79
2016-07-02T01:16:35.486Z,1000.79
2016-07-02T01:17:35.511Z,1000.8
2016-07-02T01:18:35.540Z,1000.78
2016-07-02T01:19:35.568Z,1000.77
2016-07-02T01:20:35.597Z,1000.73
2016-07-02T01:21:35.623Z,1000.76
2016-07-02T01:22:35.652Z,1000.74
2016-07-02T01:23:35.679Z,1000.75
2016-07-02T01:24:35.711Z,1000.75
2016-07-02T01:25:35.733Z,1000.72
2016-07-02T01:26:35.763Z,1000.68
2016-07-02T01:27:35.789Z,1000.67
2016-07-02T01:28:35.818Z,1000.64
2016-07-02T01:29:35.844Z,1000.64
2016-07-02T01:30:35.874Z,1000.59
2016-07-02T01:31:35.901Z,1000.56
2016-07-02T01:32:35.928Z,1000.53
2016-07-02T01:33:35.956Z,1000.52
2016-07-02T01:34:35.988Z,1000.48
2016-07-02T01:35:36.012Z,1000.48
2016-07-02T01:36:36.041Z,1000.43
2016-07-02T01:37:36.067Z,1000.43
2016-07-02T01:38:36.096Z,1000.38
2016-07-02T01:39:36.123Z,1000.37
2016-07-02T01:40:36.152Z,1000.35
2016-07-02T01:41:36.181Z,1000.37
2016-07-02T01:42:36.208Z,1000.33
2016-07-02T01:43:36.234Z,1000.36
2016-07-02T01:44:36.267Z,1000.38
2016-07-02T01:45:36.290Z,1000.36
2016-07-02T01:46:36.319Z,1000.41
2016-07-02T01:47:36.345Z,1000.37
2016-07-02T01:48:36.374Z,1000.36
2016-07-02T01:49:36.401Z,1000.39
2016-07-02T01:50:36.432Z,1000.37
2016-07-02T01:51:36.455Z,1000.37
2016-07-02T01:52:36.486Z,1000.35
2016-07-02T01:53:36.510Z,1000.35
2016-07-02T01:54:36.535Z,1000.36
2016-07-02T01:55:36.565Z,1000.34
2016-07-02T01:56:36.591Z,1000.35
2016-07-02T01:57:36.620Z,1000.34
2016-07-02T01:58:36.647Z,1000.35
2016-07-02T01:59:36.675Z,1000.35
2016-07-02T02:00:36.701Z,1000.38
2016-07-02T02:01:36.729Z,1000.38
2016-07-02T02:02:36.757Z,1000.34
2016-07-02T02:03:36.785Z,1000.36
2016-07-02T02:04:36.811Z,1000.38
2016-07-02T02:05:36.840Z,1000.31
2016-07-02T02:06:36.867Z,1000.28
2016-07-02T02:07:36.895Z,1000.28
2016-07-02T02:08:36.923Z,1000.33
2016-07-02T02:09:36.951Z,1000.34
2016-07-02T02:10:36.976Z,1000.36
2016-07-02T02:11:37.004Z,1000.31
2016-07-02T02:12:37.031Z,1000.26
2016-07-02T02:13:37.058Z,1000.27
2016-07-02T02:14:37.086Z,1000.27
2016-07-02T02:15:37.114Z,1000.24
2016-07-02T02:16:37.139Z,1000.23
2016-07-02T02:17:37.168Z,1000.23
2016-07-02T02:18:37.196Z,1000.24
2016-07-02T02:19:37.221Z,1000.26
2016-07-02T02:20:37.248Z,1000.21
2016-07-02T02:21:37.278Z,1000.19
2016-07-02T02:22:37.305Z,1000.17
2016-07-02T02:23:37.332Z,1000.15
2016-07-02T02:24:37.359Z,1000.2
2016-07-02T02:25:37.387Z,1000.19
2016-07-02T02:26:37.414Z,1000.17
2016-07-02T02:27:37.440Z,1000.17
2016-07-02T02:28:37.468Z,1000.16
2016-07-02T02:29:37.497Z,1000.15
2016-07-02T02:30:37.524Z,1000.18
2016-07-02T02:31:37.547Z,1000.16
2016-07-02T02:32:37.577Z,1000.13
2016-07-02T02:33:37.604Z,1000.17
2016-07-02T02:34:37.631Z,1000.12
2016-07-02T02:35:37.658Z,1000.16
2016-07-02T02:36:37.687Z,1000.15
2016-07-02T02:37:37.716Z,1000.1
2016-07-02T02:38:37.739Z,1000.1
2016-07-02T02:39:37.766Z,1000.12
2016-07-02T02:40:37.794Z,1000.13
2016-07-02T02:41:37.819Z,1000.07
2016-07-02T02:42:37.848Z,1000.06
2016-07-02T02:43:37.875Z,1000.07
2016-07-02T02:44:37.900Z,1000.05
2016-07-02T02:45:37.927Z,1000.04
2016-07-02T02:46:37.957Z,1000.02
2016-07-02T02:47:37.983Z,1000.02
2016-07-02T02:48:38.013Z,1000.03
2016-07-02T02:49:38.038Z,1000.02
2016-07-02T02:50:38.064Z,1000.06
2016-07-02T02:51:38.090Z,1000.03
2016-07-02T02:52:38.118Z,1000.02
2016-07-02T02:53:38.145Z,1000
2016-07-02T02:54:38.172Z,1000.02
2016-07-02T02:55:38.216Z,1000
2016-07-02T02:56:38.225Z,999.99
2016-07-02T02:57:38.253Z,999.97
2016-07-02T02:58:38.280Z,999.93
2016-07-02T02:59:38.307Z,999.96
2016-07-02T03:00:38.333Z,999.94
2016-07-02T03:01:38.358Z,999.93
2016-07-02T03:02:38.385Z,999.93
2016-07-02T03:03:38.416Z,999.89
2016-07-02T03:04:38.442Z,999.87
2016-07-02T03:05:38.468Z,999.87
2016-07-02T03:06:38.496Z,999.84
2016-07-02T03:07:38.523Z,999.81
2016-07-02T03:08:38.549Z,999.79
2016-07-02T03:09:38.573Z,999.77
2016-07-02T03:10:38.602Z,999.77
2016-07-02T03:11:38.629Z,999.74
2016-07-02T03:12:38.662Z,999.78
2016-07-02T03:13:38.682Z,999.78
2016-07-02T03:14:38.712Z,999.79
2016-07-02T03:15:38.743Z,999.75
2016-07-02T03:16:38.763Z,999.75
2016-07-02T03:17:38.793Z,999.75
2016-07-02T03:18:38.819Z,999.74
2016-07-02T03:19:38.845Z,999.73
2016-07-02T03:20:38.873Z,999.7
2016-07-02T03:21:38.901Z,999.71
2016-07-02T03:22:38.927Z,999.77
2016-07-02T03:23:38.955Z,999.74
2016-07-02T03:24:38.980Z,999.77
2016-07-02T03:25:39.007Z,999.78
2016-07-02T03:26:39.031Z,999.81
2016-07-02T03:27:39.061Z,999.76
2016-07-02T03:28:39.088Z,999.77
2016-07-02T03:29:39.115Z,999.75
2016-07-02T03:30:39.142Z,999.73
2016-07-02T03:31:39.169Z,999.73
2016-07-02T03:32:39.196Z,999.7
2016-07-02T03:33:39.223Z,999.72
2016-07-02T03:34:39.253Z,999.7
2016-07-02T03:35:39.276Z,999.67
2016-07-02T03:36:39.302Z,999.72
2016-07-02T03:37:39.329Z,999.69
2016-07-02T03:38:39.356Z,999.7
2016-07-02T03:39:39.384Z,999.7
2016-07-02T03:40:39.409Z,999.72
2016-07-02T03:41:39.437Z,999.71
2016-07-02T03:42:39.464Z,999.73
2016-07-02T03:43:39.490Z,999.73
2016-07-02T03:44:39.517Z,999.73
2016-07-02T03:45:39.545Z,999.73
2016-07-02T03:46:39.571Z,999.64
2016-07-02T03:47:39.597Z,999.65
2016-07-02T03:48:39.624Z,999.63
2016-07-02T03:49:39.651Z,999.59
2016-07-02T03:50:39.679Z,999.54
2016-07-02T03:51:39.704Z,999.49
2016-07-02T03:52:39.732Z,999.51
2016-07-02T03:53:39.760Z,999.51
2016-07-02T03:54:39.790Z,999.46
2016-07-02T03:55:39.812Z,999.48
2016-07-02T03:56:39.839Z,999.48
2016-07-02T03:57:39.866Z,999.43
2016-07-02T03:58:39.895Z,999.39
2016-07-02T03:59:39.920Z,999.42
2016-07-02T04:00:39.948Z,999.37
2016-07-02T04:01:39.975Z,999.41
2016-07-02T04:02:40.002Z,999.42
2016-07-02T04:03:40.030Z,999.42
2016-07-02T04:04:40.056Z,999.45
2016-07-02T04:05:40.083Z,999.46
2016-07-02T04:06:40.109Z,999.48
2016-07-02T04:07:40.136Z,999.53
2016-07-02T04:08:40.171Z,999.54
2016-07-02T04:09:40.187Z,999.52
2016-07-02T04:10:40.215Z,999.51
2016-07-02T04:11:40.249Z,999.49
2016-07-02T04:12:40.271Z,999.52
2016-07-02T04:13:40.296Z,999.51
2016-07-02T04:14:40.323Z,999.56
2016-07-02T04:15:40.351Z,999.56
2016-07-02T04:16:40.378Z,999.52
2016-07-02T04:17:40.404Z,999.51
2016-07-02T04:18:40.433Z,999.55
2016-07-02T04:19:40.457Z,999.52
2016-07-02T04:20:40.485Z,999.51
2016-07-02T04:21:40.510Z,999.53
2016-07-02T04:22:40.539Z,999.51
2016-07-02T04:23:40.565Z,999.51
2016-07-02T04:24:40.592Z,999.54
2016-07-02T04:25:40.618Z,999.55
2016-07-02T04:26:40.647Z,999.54
2016-07-02T04:27:40.674Z,999.53
2016-07-02T04:28:40.700Z,999.5
2016-07-02T04:29:40.729Z,999.54
2016-07-02T04:30:40.755Z,999.53
2016-07-02T04:31:40.781Z,999.56
2016-07-02T04:32:40.809Z,999.54
2016-07-02T04:33:40.836Z,999.55
2016-07-02T04:34:40.863Z,999.55
2016-07-02T04:35:40.888Z,999.53
2016-07-02T04:36:40.914Z,999.52
2016-07-02T04:37:40.941Z,999.51
2016-07-02T04:38:40.969Z,999.5
2016-07-02T04:39:40.996Z,999.52
2016-07-02T04:40:41.025Z,999.48
2016-07-02T04:41:41.050Z,999.46
2016-07-02T04:42:41.078Z,999.51
2016-07-02T04:43:41.105Z,999.54
2016-07-02T04:44:41.132Z,999.57
2016-07-02T04:45:41.159Z,999.51
2016-07-02T04:46:41.186Z,999.57
2016-07-02T04:47:41.212Z,999.59
2016-07-02T04:48:41.236Z,999.6
2016-07-02T04:49:41.266Z,999.56
2016-07-02T04:50:41.294Z,999.6
2016-07-02T04:51:41.320Z,999.56
2016-07-02T04:52:41.349Z,999.59
2016-07-02T04:53:41.374Z,999.58
2016-07-02T04:54:41.401Z,999.58
2016-07-02T04:55:41.428Z,999.56
2016-07-02T04:56:41.456Z,999.58
2016-07-02T04:57:41.479Z,999.57
2016-07-02T04:58:41.510Z,999.59
2016-07-02T04:59:41.535Z,999.58
2016-07-02T05:00:41.560Z,999.58
2016-07-02T05:01:41.586Z,999.57
2016-07-02T05:02:41.615Z,999.57
2016-07-02T05:03:41.644Z,999.58
2016-07-02T05:04:41.671Z,999.62
2016-07-02T05:05:41.694Z,999.61
2016-07-02T05:06:41.725Z,999.54
2016-07-02T05:07:41.750Z,999.56
2016-07-02T05:08:41.778Z,999.55
2016-07-02T05:09:41.802Z,999.56
2016-07-02T05:10:41.837Z,999.57
2016-07-02T05:11:41.861Z,999.58
2016-07-02T05:12:41.899Z,999.57
2016-07-02T05:13:41.912Z,999.59
2016-07-02T05:14:41.939Z,999.58
2016-07-02T05:15:41.967Z,999.63
2016-07-02T05:16:41.994Z,999.62
2016-07-02T05:17:42.021Z,999.59
2016-07-02T05:18:42.047Z,999.55
2016-07-02T05:19:42.075Z,999.55
2016-07-02T05:20:42.103Z,999.56
2016-07-02T05:21:42.131Z,999.52
2016-07-02T05:22:42.156Z,999.57
2016-07-02T05:23:42.183Z,999.56
2016-07-02T05:24:42.211Z,999.5
2016-07-02T05:25:42.238Z,999.45
2016-07-02T05:26:42.265Z,999.45
2016-07-02T05:27:42.291Z,999.45
2016-07-02T05:28:42.321Z,999.41
2016-07-02T05:29:42.346Z,999.4
2016-07-02T05:30:42.373Z,999.35
2016-07-02T05:31:42.400Z,999.33
2016-07-02T05:32:42.429Z,999.33
2016-07-02T05:33:42.454Z,999.27
2016-07-02T05:34:42.484Z,999.3
2016-07-02T05:35:42.508Z,999.34
2016-07-02T05:36:42.536Z,999.37
2016-07-02T05:37:42.561Z,999.33
2016-07-02T05:38:42.590Z,999.37
2016-07-02T05:39:42.616Z,999.34
2016-07-02T05:40:42.644Z,999.38
2016-07-02T05:41:42.670Z,999.32
2016-07-02T05:42:42.698Z,999.32
2016-07-02T05:43:42.726Z,999.3
2016-07-02T05:44:42.752Z,999.26
2016-07-02T05:45:42.779Z,999.27
2016-07-02T05:46:42.806Z,999.26
2016-07-02T05:47:42.834Z,999.19
2016-07-02T05:48:42.861Z,999.24
2016-07-02T05:49:42.888Z,999.23
2016-07-02T05:50:42.916Z,999.27
2016-07-02T05:51:42.944Z,999.29
2016-07-02T05:52:42.969Z,999.31
2016-07-02T05:53:42.998Z,999.28
2016-07-02T05:54:43.025Z,999.27
2016-07-02T05:55:43.052Z,999.28
2016-07-02T05:56:43.079Z,999.3
2016-07-02T05:57:43.107Z,999.31
2016-07-02T05:58:43.134Z,999.28
2016-07-02T05:59:43.159Z,999.28
2016-07-02T06:00:43.189Z,999.3
2016-07-02T06:01:43.212Z,999.31
2016-07-02T06:02:43.243Z,999.32
2016-07-02T06:03:43.270Z,999.29
2016-07-02T06:04:43.299Z,999.32
2016-07-02T06:05:43.326Z,999.32
2016-07-02T06:06:43.352Z,999.29
2016-07-02T06:07:43.381Z,999.22
2016-07-02T06:08:43.408Z,999.27
2016-07-02T06:09:43.436Z,999.23
2016-07-02T06:10:43.462Z,999.23
2016-07-02T06:11:43.490Z,999.2
2016-07-02T06:12:43.520Z,999.22
2016-07-02T06:13:43.547Z,999.27
2016-07-02T06:14:43.574Z,999.24
2016-07-02T06:15:43.601Z,999.24
2016-07-02T06:16:43.630Z,999.23
2016-07-02T06:17:43.656Z,999.19
2016-07-02T06:18:43.682Z,999.23
2016-07-02T06:19:43.712Z,999.25
2016-07-02T06:20:43.741Z,999.23
2016-07-02T06:21:43.768Z,999.28
2016-07-02T06:22:43.795Z,999.23
2016-07-02T06:23:43.824Z,999.25
2016-07-02T06:24:43.853Z,999.2
2016-07-02T06:25:43.879Z,999.26
2016-07-02T06:26:43.905Z,999.25
2016-07-02T06:27:43.935Z,999.25
2016-07-02T06:28:43.969Z,999.25
2016-07-02T06:29:43.987Z,999.31
2016-07-02T06:30:44.018Z,999.36
2016-07-02T06:31:44.047Z,999.39
2016-07-02T06:32:44.074Z,999.4
2016-07-02T06:33:44.101Z,999.38
2016-07-02T06:34:44.130Z,999.39
2016-07-02T06:35:44.153Z,999.44
2016-07-02T06:36:44.184Z,999.44
2016-07-02T06:37:44.211Z,999.45
2016-07-02T06:38:44.240Z,999.49
2016-07-02T06:39:44.267Z,999.55
2016-07-02T06:40:44.296Z,999.54
2016-07-02T06:41:44.323Z,999.56
2016-07-02T06:42:44.352Z,999.58
2016-07-02T06:43:44.378Z,999.6
2016-07-02T06:44:44.408Z,999.6
2016-07-02T06:45:44.435Z,999.59
2016-07-02T06:46:44.463Z,999.54
2016-07-02T06:47:44.492Z,999.61
2016-07-02T06:48:44.519Z,999.61
2016-07-02T06:49:44.548Z,999.64
2016-07-02T06:50:44.575Z,999.67
2016-07-02T06:51:44.605Z,999.66
2016-07-02T06:52:44.632Z,999.68
2016-07-02T06:53:44.660Z,999.71
2016-07-02T06:54:44.688Z,999.73
2016-07-02T06:55:44.716Z,999.75
2016-07-02T06:56:44.744Z,999.74
2016-07-02T06:57:44.771Z,999.71
2016-07-02T06:58:44.800Z,999.69
2016-07-02T06:59:44.828Z,999.72
2016-07-02T07:00:44.857Z,999.73
2016-07-02T07:01:44.885Z,999.77
2016-07-02T07:02:44.913Z,999.79
2016-07-02T07:03:44.941Z,999.75
2016-07-02T07:04:44.970Z,999.66
2016-07-02T07:05:44.999Z,999.69
2016-07-02T07:06:45.027Z,999.72
2016-07-02T07:07:45.054Z,999.69
2016-07-02T07:08:45.086Z,999.67
2016-07-02T07:09:45.110Z,999.67
2016-07-02T07:10:45.140Z,999.72
2016-07-02T07:11:45.168Z,999.73
2016-07-02T07:12:45.196Z,999.66
2016-07-02T07:13:45.225Z,999.65
2016-07-02T07:14:45.251Z,999.7
2016-07-02T07:15:45.285Z,999.7
2016-07-02T07:16:45.310Z,999.67
2016-07-02T07:17:45.339Z,999.69
2016-07-02T07:18:45.368Z,999.69
2016-07-02T07:19:45.396Z,999.68
2016-07-02T07:20:45.425Z,999.66
2016-07-02T07:21:45.454Z,999.66
2016-07-02T07:22:45.483Z,999.62
2016-07-02T07:23:45.510Z,999.63
2016-07-02T07:24:45.540Z,999.62
2016-07-02T07:25:45.573Z,999.61
2016-07-02T07:26:45.599Z,999.61
2016-07-02T07:27:45.627Z,999.61
2016-07-02T07:28:45.657Z,999.6
2016-07-02T07:29:45.682Z,999.61
2016-07-02T07:30:45.710Z,999.58
2016-07-02T07:31:45.742Z,999.57
2016-07-02T07:32:45.768Z,999.57
2016-07-02T07:33:45.803Z,999.58
2016-07-02T07:34:45.828Z,999.53
2016-07-02T07:35:45.855Z,999.51
2016-07-02T07:36:45.884Z,999.53
2016-07-02T07:37:45.912Z,999.55
2016-07-02T07:38:45.993Z,999.54
2016-07-02T07:39:45.970Z,999.57
2016-07-02T07:40:45.998Z,999.63
2016-07-02T07:41:46.028Z,999.63
2016-07-02T07:42:46.058Z,999.62
2016-07-02T07:43:46.088Z,999.67
2016-07-02T07:44:46.118Z,999.68
2016-07-02T07:45:46.148Z,999.71
2016-07-02T07:46:46.175Z,999.69
2016-07-02T07:47:46.204Z,999.65
2016-07-02T07:48:46.236Z,999.65
2016-07-02T07:49:46.262Z,999.61
2016-07-02T07:50:46.290Z,999.57
2016-07-02T07:51:46.320Z,999.57
2016-07-02T07:52:46.345Z,999.62
2016-07-02T07:53:46.377Z,999.64
2016-07-02T07:54:46.406Z,999.66
2016-07-02T07:55:46.441Z,999.67
2016-07-02T07:56:46.463Z,999.69
2016-07-02T07:57:46.494Z,999.72
2016-07-02T07:58:46.522Z,999.7
2016-07-02T07:59:46.553Z,999.69
2016-07-02T08:00:46.580Z,999.73
2016-07-02T08:01:46.616Z,999.7
2016-07-02T08:02:46.639Z,999.71
2016-07-02T08:03:46.667Z,999.72
2016-07-02T08:04:46.697Z,999.76
2016-07-02T08:05:46.727Z,999.76
2016-07-02T08:06:46.757Z,999.75
2016-07-02T08:07:46.784Z,999.71
2016-07-02T08:08:46.812Z,999.67
2016-07-02T08:09:46.843Z,999.64
2016-07-02T08:10:46.901Z,999.66
2016-07-02T08:11:46.899Z,999.64
2016-07-02T08:12:46.931Z,999.63
2016-07-02T08:13:46.960Z,999.63
2016-07-02T08:14:47.014Z,999.65
2016-07-02T08:15:47.020Z,999.69
2016-07-02T08:16:47.047Z,999.71
2016-07-02T08:17:47.077Z,999.68
2016-07-02T08:18:47.104Z,999.67
2016-07-02T08:19:47.135Z,999.72
2016-07-02T08:20:47.163Z,999.74
2016-07-02T08:21:47.193Z,999.72
2016-07-02T08:22:47.223Z,999.73
2016-07-02T08:23:47.357Z,999.74
2016-07-02T08:24:47.371Z,999.72
2016-07-02T08:25:47.417Z,999.74
2016-07-02T08:26:47.339Z,999.75
2016-07-02T08:27:47.369Z,999.76
2016-07-02T08:28:47.398Z,999.78
2016-07-02T08:29:47.425Z,999.73
2016-07-02T08:30:47.457Z,999.78
2016-07-02T08:31:47.488Z,999.82
2016-07-02T08:32:47.517Z,999.78
2016-07-02T08:33:47.544Z,999.83
2016-07-02T08:34:47.575Z,999.82
2016-07-02T08:35:47.607Z,999.84
2016-07-02T08:36:47.632Z,999.85
2016-07-02T08:37:47.665Z,999.85
2016-07-02T08:38:47.740Z,999.85
2016-07-02T08:39:47.723Z,999.88
2016-07-02T08:40:47.750Z,999.86
2016-07-02T08:41:47.779Z,999.87
2016-07-02T08:42:47.809Z,999.87
2016-07-02T08:43:47.838Z,999.88
2016-07-02T08:44:47.867Z,999.88
2016-07-02T08:45:47.898Z,999.87
2016-07-02T08:46:47.926Z,999.91
2016-07-02T08:47:47.957Z,999.92
2016-07-02T08:48:47.985Z,999.93
2016-07-02T08:49:48.022Z,999.97
2016-07-02T08:50:48.044Z,999.93
2016-07-02T08:51:48.074Z,999.9
2016-07-02T08:52:48.103Z,999.88
2016-07-02T08:53:48.136Z,999.86
2016-07-02T08:54:48.160Z,999.91
2016-07-02T08:55:48.190Z,999.85
2016-07-02T08:56:48.219Z,999.85
2016-07-02T08:57:48.250Z,999.81
2016-07-02T08:58:48.317Z,999.82
2016-07-02T08:59:48.324Z,999.81
2016-07-02T09:00:48.340Z,999.85
2016-07-02T09:01:48.435Z,999.81
2016-07-02T09:02:48.397Z,999.82
2016-07-02T09:03:48.427Z,999.76
2016-07-02T09:04:48.457Z,999.83
2016-07-02T09:05:48.488Z,999.81
2016-07-02T09:06:48.539Z,999.81
2016-07-02T09:07:48.546Z,999.78
2016-07-02T09:08:48.577Z,999.79
2016-07-02T09:09:48.608Z,999.81
2016-07-02T09:10:48.636Z,999.84
2016-07-02T09:11:48.664Z,999.85
2016-07-02T09:12:48.698Z,999.85
2016-07-02T09:13:48.725Z,999.9
2016-07-02T09:14:48.754Z,999.84
2016-07-02T09:15:48.786Z,999.84
2016-07-02T09:16:48.813Z,999.83
2016-07-02T09:17:48.844Z,999.85
2016-07-02T09:18:48.873Z,999.79
2016-07-02T09:19:48.902Z,999.8
2016-07-02T09:20:48.932Z,999.82
2016-07-02T09:21:48.960Z,999.83
2016-07-02T09:22:49.109Z,999.83
2016-07-02T09:23:49.023Z,999.85
2016-07-02T09:24:49.050Z,999.89
2016-07-02T09:25:49.079Z,999.89
2016-07-02T09:26:49.111Z,999.86
2016-07-02T09:27:49.140Z,999.89
2016-07-02T09:28:49.240Z,999.9
2016-07-02T09:29:49.198Z,999.9
2016-07-02T09:30:49.232Z,999.92
2016-07-02T09:31:49.258Z,999.91
2016-07-02T09:32:49.289Z,999.88
2016-07-02T09:33:49.319Z,999.88
2016-07-02T09:34:49.348Z,999.86
2016-07-02T09:35:49.381Z,999.85
2016-07-02T09:36:49.410Z,999.8
2016-07-02T09:37:49.439Z,999.82
2016-07-02T09:38:49.469Z,999.77
2016-07-02T09:39:49.498Z,999.8
2016-07-02T09:40:49.527Z,999.81
2016-07-02T09:41:49.560Z,999.85
2016-07-02T09:42:49.589Z,999.79
2016-07-02T09:43:49.620Z,999.81
2016-07-02T09:44:49.647Z,999.82
2016-07-02T09:45:49.676Z,999.88
2016-07-02T09:46:49.709Z,999.88
2016-07-02T09:47:49.738Z,999.94
2016-07-02T09:48:49.769Z,999.9
2016-07-02T09:49:49.799Z,999.89
2016-07-02T09:50:49.829Z,999.86
2016-07-02T09:51:49.859Z,999.91
2016-07-02T09:52:49.887Z,999.91
2016-07-02T09:53:49.941Z,999.91
2016-07-02T09:54:49.948Z,999.87
2016-07-02T09:55:50.000Z,999.88
2016-07-02T09:56:50.009Z,999.93
2016-07-02T09:57:50.039Z,999.94
2016-07-02T09:58:50.069Z,999.91
2016-07-02T09:59:50.097Z,999.9
2016-07-02T10:00:50.127Z,999.94
2016-07-02T10:01:50.160Z,999.96
2016-07-02T10:02:50.189Z,1000.01
2016-07-02T10:03:50.219Z,1000.19
2016-07-02T10:04:50.249Z,1000.37
2016-07-02T10:05:50.280Z,1000.45
2016-07-02T10:06:50.307Z,1000.58
2016-07-02T10:07:50.337Z,1000.54
2016-07-02T10:08:50.411Z,1000.71
2016-07-02T10:09:50.445Z,1000.76
2016-07-02T10:10:50.462Z,1000.82
2016-07-02T10:11:50.504Z,1000.94
2016-07-02T10:12:50.662Z,1001.02
2016-07-02T10:13:50.535Z,1000.95
2016-07-02T10:14:50.562Z,1000.91
2016-07-02T10:15:50.600Z,1000.94
2016-07-02T10:16:50.630Z,1000.89
2016-07-02T10:17:50.669Z,1000.92
2016-07-02T10:18:50.702Z,1000.91
2016-07-02T10:19:50.723Z,1000.94
2016-07-02T10:20:50.760Z,1000.98
2016-07-02T10:21:50.782Z,1001.13
2016-07-02T10:22:50.820Z,1001.13
2016-07-02T10:23:50.852Z,1001.18
2016-07-02T10:24:50.879Z,1001.18
2016-07-02T10:25:50.890Z,1001.31
2016-07-02T10:26:50.936Z,1001.28
2016-07-02T10:27:50.956Z,1001.34
2016-07-02T10:28:50.995Z,1001.37
2016-07-02T10:29:51.031Z,1001.32
2016-07-02T10:30:51.040Z,1001.32
2016-07-02T10:31:51.088Z,1001.27
2016-07-02T10:32:51.111Z,1001.35
2016-07-02T10:33:51.143Z,1001.43
2016-07-02T10:34:51.170Z,1001.46
2016-07-02T10:35:51.204Z,1001.46
2016-07-02T10:36:51.222Z,1001.49
2016-07-02T10:37:51.256Z,1001.55
2016-07-02T10:38:51.268Z,1001.57
2016-07-02T10:39:51.324Z,1001.54
2016-07-02T10:40:51.334Z,1001.5
2016-07-02T10:41:51.363Z,1001.52
2016-07-02T10:42:51.409Z,1001.53
2016-07-02T10:43:51.436Z,1001.56
2016-07-02T10:44:51.447Z,1001.57
2016-07-02T10:45:51.487Z,1001.58
2016-07-02T10:46:51.502Z,1001.57
2016-07-02T10:47:51.544Z,1001.64
2016-07-02T10:48:51.566Z,1001.65
2016-07-02T10:49:51.602Z,1001.65
2016-07-02T10:50:51.639Z,1001.66
2016-07-02T10:51:51.679Z,1001.61
2016-07-02T10:52:51.680Z,1001.7
2016-07-02T10:53:51.722Z,1001.66
2016-07-02T10:54:51.738Z,1001.69
2016-07-02T10:55:51.782Z,1001.73
2016-07-02T10:56:51.807Z,1001.82
2016-07-02T10:57:51.827Z,1001.83
2016-07-02T10:58:51.884Z,1001.82
2016-07-02T10:59:51.898Z,1001.85
2016-07-02T11:00:51.930Z,1001.85
2016-07-02T11:01:51.945Z,1001.89
2016-07-02T11:02:51.986Z,1001.88
2016-07-02T11:03:52.014Z,1001.89
2016-07-02T11:04:52.030Z,1001.95
2016-07-02T11:05:52.078Z,1001.99
2016-07-02T11:06:52.102Z,1002.03
2016-07-02T11:07:52.121Z,1002.02
2016-07-02T11:08:52.157Z,1002.06
2016-07-02T11:09:52.194Z,1002.02
2016-07-02T11:10:52.218Z,1002.04
2016-07-02T11:11:52.254Z,1002.04
2016-07-02T11:12:52.279Z,1002.06
2016-07-02T11:13:52.302Z,1002.14
2016-07-02T11:14:52.335Z,1002.15
2016-07-02T11:15:52.361Z,1002.13
2016-07-02T11:16:52.377Z,1002.16
2016-07-02T11:17:52.409Z,1002.15
2016-07-02T11:18:52.439Z,1002.17
2016-07-02T11:19:52.483Z,1002.14
2016-07-02T11:20:52.509Z,1002.15
2016-07-02T11:21:52.544Z,1002.16
2016-07-02T11:22:52.562Z,1002.1
2016-07-02T11:23:52.597Z,1002.13
2016-07-02T11:24:52.619Z,1002.06
2016-07-02T11:25:52.657Z,1002.08
2016-07-02T11:26:52.669Z,1002.07
2016-07-02T11:27:52.709Z,1002.1
2016-07-02T11:28:52.748Z,1002.07
2016-07-02T11:29:52.759Z,1002.16
2016-07-02T11:30:52.801Z,1002.13
2016-07-02T11:31:52.833Z,1002.05
2016-07-02T11:32:52.869Z,1002.11
2016-07-02T11:33:52.881Z,1002.15
2016-07-02T11:34:52.922Z,1002.14
2016-07-02T11:35:52.937Z,1002.11
2016-07-02T11:36:52.976Z,1002.08
2016-07-02T11:37:53.006Z,1002.1
2016-07-02T11:38:53.033Z,1002.11
2016-07-02T11:39:53.063Z,1002.11
2016-07-02T11:40:53.077Z,1002.07
2016-07-02T11:41:53.110Z,1002.01
2016-07-02T11:42:53.146Z,1001.99
2016-07-02T11:43:53.170Z,1001.99
2016-07-02T11:44:53.211Z,1002.02
2016-07-02T11:45:53.218Z,1001.98
2016-07-02T11:46:53.259Z,1001.97
2016-07-02T11:47:53.288Z,1001.96
2016-07-02T11:48:53.314Z,1001.93
2016-07-02T11:49:53.343Z,1001.94
2016-07-02T11:50:53.373Z,1001.99
2016-07-02T11:51:53.397Z,1002.03
2016-07-02T11:52:53.434Z,1002.06
2016-07-02T11:53:53.465Z,1002
2016-07-02T11:54:53.486Z,1002
2016-07-02T11:55:53.518Z,1002.01
2016-07-02T11:56:53.542Z,1002.04
2016-07-02T11:57:53.582Z,1002.01
2016-07-02T11:58:53.608Z,1002.06
2016-07-02T11:59:53.634Z,1002.06
2016-07-02T12:00:53.655Z,1002.05
2016-07-02T12:01:53.689Z,1002.07
2016-07-02T12:02:53.720Z,1002.07
2016-07-02T12:03:53.759Z,1002.09
2016-07-02T12:04:53.786Z,1002.07
2016-07-02T12:05:53.806Z,1002.06
2016-07-02T12:06:53.836Z,1002.09
2016-07-02T12:07:53.874Z,1002.08
2016-07-02T12:08:53.891Z,1002.1
2016-07-02T12:09:53.933Z,1002.13
2016-07-02T12:10:53.938Z,1002.1
2016-07-02T12:11:53.992Z,1002.13
2016-07-02T12:12:54.015Z,1002.13
2016-07-02T12:13:54.025Z,1002.18
2016-07-02T12:14:54.069Z,1002.19
2016-07-02T12:15:54.091Z,1002.17
2016-07-02T12:16:54.114Z,1002.2
2016-07-02T12:17:54.151Z,1002.23
2016-07-02T12:18:54.178Z,1002.24
2016-07-02T12:19:54.195Z,1002.26
2016-07-02T12:20:54.232Z,1002.23